createdAt,value
2018-06-04T00:00:50.599Z,1014.65
2018-06-04T00:01:50.560Z,1014.68
2018-06-04T00:02:50.575Z,1014.68
2018-06-04T00:03:50.577Z,1014.66
2018-06-04T00:04:50.619Z,1014.67
2018-06-04T00:05:50.716Z,1014.65
2018-06-04T00:06:50.594Z,1014.69
2018-06-04T00:07:50.577Z,1014.64
2018-06-04T00:08:50.594Z,1014.63
2018-06-04T00:09:50.570Z,1014.67
2018-06-04T00:10:50.569Z,1014.62
2018-06-04T00:11:50.567Z,1014.58
2018-06-04T00:12:50.557Z,1014.63
2018-06-04T00:13:50.593Z,1014.61
2018-06-04T00:14:50.549Z,1014.61
2018-06-04T00:15:50.597Z,1014.64
2018-06-04T00:16:50.563Z,1014.61
2018-06-04T00:17:50.556Z,1014.59
2018-06-04T00:18:50.541Z,1014.63
2018-06-04T00:19:50.549Z,1014.65
2018-06-04T00:20:50.677Z,1014.62
2018-06-04T00:21:50.573Z,1014.66
2018-06-04T00:22:50.544Z,1014.64
2018-06-04T00:23:50.708Z,1014.66
2018-06-04T00:24:50.602Z,1014.64
2018-06-04T00:25:50.564Z,1014.6
2018-06-04T00:26:50.556Z,1014.59
2018-06-04T00:27:50.624Z,1014.57
2018-06-04T00:28:50.582Z,1014.55
2018-06-04T00:29:50.588Z,1014.54
2018-06-04T00:30:50.646Z,1014.53
2018-06-04T00:31:50.563Z,1014.54
2018-06-04T00:32:50.570Z,1014.52
2018-06-04T00:33:50.563Z,1014.48
2018-06-04T00:34:50.555Z,1014.46
2018-06-04T00:35:50.553Z,1014.53
2018-06-04T00:36:50.572Z,1014.48
2018-06-04T00:37:50.560Z,1014.48
2018-06-04T00:38:50.546Z,1014.48
2018-06-04T00:39:50.567Z,1014.49
2018-06-04T00:40:50.547Z,1014.49
2018-06-04T00:41:50.540Z,1014.47
2018-06-04T00:42:50.557Z,1014.48
2018-06-04T00:43:50.528Z,1014.53
2018-06-04T00:44:50.566Z,1014.47
2018-06-04T00:45:50.534Z,1014.44
2018-06-04T00:46:50.529Z,1014.45
2018-06-04T00:47:50.555Z,1014.47
2018-06-04T00:48:50.578Z,1014.48
2018-06-04T00:49:50.582Z,1014.44
2018-06-04T00:50:50.541Z,1014.49
2018-06-04T00:51:50.545Z,1014.51
2018-06-04T00:52:50.545Z,1014.51
2018-06-04T00:53:50.605Z,1014.52
2018-06-04T00:54:50.548Z,1014.53
2018-06-04T00:55:50.546Z,1014.58
2018-06-04T00:56:50.592Z,1014.61
2018-06-04T00:57:50.558Z,1014.6
2018-06-04T00:58:50.591Z,1014.59
2018-06-04T00:59:50.909Z,1014.58
2018-06-04T01:00:50.717Z,1014.58
2018-06-04T01:01:50.548Z,1014.62
2018-06-04T01:02:50.566Z,1014.61
2018-06-04T01:03:51.030Z,1014.56
2018-06-04T01:04:50.565Z,1014.58
2018-06-04T01:05:50.564Z,1014.53
2018-06-04T01:06:50.691Z,1014.52
2018-06-04T01:07:50.747Z,1014.5
2018-06-04T01:08:50.714Z,1014.48
2018-06-04T01:09:50.561Z,1014.51
2018-06-04T01:10:50.523Z,1014.5
2018-06-04T01:11:50.631Z,1014.49
2018-06-04T01:12:50.598Z,1014.5
2018-06-04T01:13:50.574Z,1014.48
2018-06-04T01:14:50.572Z,1014.49
2018-06-04T01:15:50.579Z,1014.43
2018-06-04T01:16:50.672Z,1014.41
2018-06-04T01:17:50.573Z,1014.42
2018-06-04T01:18:50.849Z,1014.44
2018-06-04T01:19:50.561Z,1014.43
2018-06-04T01:20:50.853Z,1014.35
2018-06-04T01:21:50.527Z,1014.38
2018-06-04T01:22:50.581Z,1014.38
2018-06-04T01:23:50.568Z,1014.33
2018-06-04T01:24:50.555Z,1014.35
2018-06-04T01:25:50.544Z,1014.36
2018-06-04T01:26:50.555Z,1014.35
2018-06-04T01:27:50.586Z,1014.33
2018-06-04T01:28:50.542Z,1014.32
2018-06-04T01:29:50.535Z,1014.34
2018-06-04T01:30:50.544Z,1014.29
2018-06-04T01:31:50.527Z,1014.28
2018-06-04T01:32:50.735Z,1014.3
2018-06-04T01:33:50.525Z,1014.35
2018-06-04T01:34:50.533Z,1014.33
2018-06-04T01:35:50.618Z,1014.34
2018-06-04T01:36:50.617Z,1014.3
2018-06-04T01:37:50.521Z,1014.32
2018-06-04T01:38:50.544Z,1014.29
2018-06-04T01:39:50.587Z,1014.21
2018-06-04T01:40:50.521Z,1014.24
2018-06-04T01:41:50.538Z,1014.24
2018-06-04T01:42:50.539Z,1014.19
2018-06-04T01:43:50.556Z,1014.19
2018-06-04T01:44:51.200Z,1014.19
2018-06-04T01:45:50.577Z,1014.21
2018-06-04T01:46:50.552Z,1014.23
2018-06-04T01:47:50.523Z,1014.21
2018-06-04T01:48:50.545Z,1014.21
2018-06-04T01:49:50.553Z,1014.21
2018-06-04T01:50:50.559Z,1014.17
2018-06-04T01:51:50.545Z,1014.19
2018-06-04T01:52:50.530Z,1014.13
2018-06-04T01:53:50.540Z,1014.13
2018-06-04T01:54:50.525Z,1014.13
2018-06-04T01:55:50.521Z,1014.14
2018-06-04T01:56:50.564Z,1014.14
2018-06-04T01:57:50.523Z,1014.15
2018-06-04T01:58:50.583Z,1014.16
2018-06-04T01:59:50.530Z,1014.13
2018-06-04T02:00:50.556Z,1014.12
2018-06-04T02:01:50.551Z,1014.12
2018-06-04T02:02:50.537Z,1014.11
2018-06-04T02:03:50.669Z,1014.14
2018-06-04T02:04:50.537Z,1014.07
2018-06-04T02:05:50.552Z,1014.07
2018-06-04T02:06:50.541Z,1014.13
2018-06-04T02:07:50.543Z,1014.11
2018-06-04T02:08:50.515Z,1014.12
2018-06-04T02:09:50.556Z,1014.09
2018-06-04T02:10:50.526Z,1014.14
2018-06-04T02:11:50.534Z,1014.12
2018-06-04T02:12:50.548Z,1014.13
2018-06-04T02:13:50.551Z,1014.1
2018-06-04T02:14:50.556Z,1014.16
2018-06-04T02:15:50.741Z,1014.16
2018-06-04T02:16:50.521Z,1014.14
2018-06-04T02:17:50.520Z,1014.13
2018-06-04T02:18:50.546Z,1014.16
2018-06-04T02:19:50.537Z,1014.13
2018-06-04T02:20:50.541Z,1014.16
2018-06-04T02:21:50.843Z,1014.19
2018-06-04T02:22:50.569Z,1014.15
2018-06-04T02:23:50.519Z,1014.15
2018-06-04T02:24:50.516Z,1014.11
2018-06-04T02:25:50.513Z,1014.13
2018-06-04T02:26:50.527Z,1014.14
2018-06-04T02:27:50.514Z,1014.12
2018-06-04T02:28:50.555Z,1014.11
2018-06-04T02:29:50.517Z,1014.12
2018-06-04T02:30:50.538Z,1014.05
2018-06-04T02:31:50.521Z,1014.11
2018-06-04T02:32:50.521Z,1014.1
2018-06-04T02:33:50.557Z,1014.06
2018-06-04T02:34:50.529Z,1014.05
2018-06-04T02:35:50.494Z,1014
2018-06-04T02:36:50.507Z,1014.04
2018-06-04T02:37:50.515Z,1014.04
2018-06-04T02:38:50.500Z,1014.03
2018-06-04T02:39:50.651Z,1014.05
2018-06-04T02:40:50.525Z,1014
2018-06-04T02:41:50.597Z,1014
2018-06-04T02:42:50.622Z,1013.96
2018-06-04T02:43:50.550Z,1013.97
2018-06-04T02:44:50.697Z,1013.96
2018-06-04T02:45:50.525Z,1013.95
2018-06-04T02:46:50.590Z,1013.97
2018-06-04T02:47:50.532Z,1013.94
2018-06-04T02:48:50.521Z,1013.96
2018-06-04T02:49:50.728Z,1013.93
2018-06-04T02:50:50.600Z,1013.94
2018-06-04T02:51:50.505Z,1013.93
2018-06-04T02:52:50.505Z,1013.95
2018-06-04T02:53:50.528Z,1013.88
2018-06-04T02:54:50.520Z,1013.87
2018-06-04T02:55:50.524Z,1013.9
2018-06-04T02:56:50.537Z,1013.88
2018-06-04T02:57:50.553Z,1013.9
2018-06-04T02:58:50.543Z,1013.89
2018-06-04T02:59:50.526Z,1013.88
2018-06-04T03:00:50.525Z,1013.93
2018-06-04T03:01:50.503Z,1013.95
2018-06-04T03:02:50.517Z,1013.96
2018-06-04T03:03:50.498Z,1013.94
2018-06-04T03:04:50.482Z,1013.94
2018-06-04T03:05:50.493Z,1013.97
2018-06-04T03:06:50.511Z,1013.99
2018-06-04T03:07:50.505Z,1013.98
2018-06-04T03:08:50.512Z,1014.02
2018-06-04T03:09:50.496Z,1014
2018-06-04T03:10:50.514Z,1014.05
2018-06-04T03:11:50.517Z,1014.02
2018-06-04T03:12:50.504Z,1014.01
2018-06-04T03:13:50.499Z,1014.01
2018-06-04T03:14:50.499Z,1014.02
2018-06-04T03:15:51.134Z,1014.04
2018-06-04T03:16:50.509Z,1014.05
2018-06-04T03:17:50.549Z,1014.01
2018-06-04T03:18:50.774Z,1014.03
2018-06-04T03:19:50.625Z,1014.02
2018-06-04T03:20:50.505Z,1014.01
2018-06-04T03:21:50.489Z,1013.98
2018-06-04T03:22:50.567Z,1013.98
2018-06-04T03:23:50.488Z,1013.96
2018-06-04T03:24:50.519Z,1013.98
2018-06-04T03:25:50.537Z,1013.95
2018-06-04T03:26:50.522Z,1013.95
2018-06-04T03:27:50.541Z,1013.98
2018-06-04T03:28:50.527Z,1013.98
2018-06-04T03:29:50.491Z,1013.96
2018-06-04T03:30:50.496Z,1013.99
2018-06-04T03:31:50.511Z,1013.96
2018-06-04T03:32:50.514Z,1013.95
2018-06-04T03:33:50.825Z,1013.97
2018-06-04T03:34:50.576Z,1013.92
2018-06-04T03:35:50.492Z,1013.96
2018-06-04T03:36:50.684Z,1013.92
2018-06-04T03:37:50.504Z,1013.97
2018-06-04T03:38:50.670Z,1013.94
2018-06-04T03:39:50.523Z,1013.95
2018-06-04T03:40:50.671Z,1013.97
2018-06-04T03:41:50.558Z,1013.95
2018-06-04T03:42:50.505Z,1013.95
2018-06-04T03:43:50.523Z,1013.98
2018-06-04T03:44:50.501Z,1013.98
2018-06-04T03:45:50.587Z,1014.03
2018-06-04T03:46:50.511Z,1013.99
2018-06-04T03:47:50.472Z,1014.04
2018-06-04T03:48:50.593Z,1014.04
2018-06-04T03:49:50.493Z,1014.07
2018-06-04T03:50:50.529Z,1014.09
2018-06-04T03:51:50.487Z,1014.08
2018-06-04T03:52:50.500Z,1014.07
2018-06-04T03:53:50.491Z,1014.09
2018-06-04T03:54:50.754Z,1014.13
2018-06-04T03:55:50.496Z,1014.12
2018-06-04T03:56:50.502Z,1014.11
2018-06-04T03:57:50.487Z,1014.15
2018-06-04T03:58:50.507Z,1014.11
2018-06-04T03:59:50.701Z,1014.1
2018-06-04T04:00:50.512Z,1014.09
2018-06-04T04:01:50.645Z,1014.08
2018-06-04T04:02:50.549Z,1014.13
2018-06-04T04:03:50.480Z,1014.15
2018-06-04T04:04:50.494Z,1014.12
2018-06-04T04:05:50.481Z,1014.14
2018-06-04T04:06:50.479Z,1014.14
2018-06-04T04:07:50.505Z,1014.14
2018-06-04T04:08:50.513Z,1014.1
2018-06-04T04:09:50.496Z,1014.13
2018-06-04T04:10:50.494Z,1014.16
2018-06-04T04:11:50.493Z,1014.13
2018-06-04T04:12:50.493Z,1014.16
2018-06-04T04:13:50.503Z,1014.13
2018-06-04T04:14:50.515Z,1014.17
2018-06-04T04:15:50.548Z,1014.14
2018-06-04T04:16:50.479Z,1014.15
2018-06-04T04:17:50.509Z,1014.14
2018-06-04T04:18:50.503Z,1014.16
2018-06-04T04:19:50.496Z,1014.18
2018-06-04T04:20:50.499Z,1014.17
2018-06-04T04:21:50.490Z,1014.16
2018-06-04T04:22:50.481Z,1014.17
2018-06-04T04:23:50.512Z,1014.16
2018-06-04T04:24:50.855Z,1014.18
2018-06-04T04:25:50.495Z,1014.16
2018-06-04T04:26:50.653Z,1014.18
2018-06-04T04:27:50.974Z,1014.19
2018-06-04T04:28:50.609Z,1014.14
2018-06-04T04:29:50.519Z,1014.19
2018-06-04T04:30:50.459Z,1014.19
2018-06-04T04:31:50.499Z,1014.16
2018-06-04T04:32:50.549Z,1014.18
2018-06-04T04:33:50.485Z,1014.19
2018-06-04T04:34:50.465Z,1014.19
2018-06-04T04:35:50.521Z,1014.2
2018-06-04T04:36:50.488Z,1014.18
2018-06-04T04:37:50.627Z,1014.22
2018-06-04T04:38:50.534Z,1014.21
2018-06-04T04:39:50.484Z,1014.17
2018-06-04T04:40:50.581Z,1014.25
2018-06-04T04:41:50.477Z,1014.22
2018-06-04T04:42:50.483Z,1014.23
2018-06-04T04:43:50.490Z,1014.26
2018-06-04T04:44:50.453Z,1014.25
2018-06-04T04:45:50.469Z,1014.3
2018-06-04T04:46:50.488Z,1014.26
2018-06-04T04:47:50.729Z,1014.3
2018-06-04T04:48:50.467Z,1014.29
2018-06-04T04:49:50.459Z,1014.27
2018-06-04T04:50:50.443Z,1014.31
2018-06-04T04:51:50.477Z,1014.31
2018-06-04T04:52:50.488Z,1014.3
2018-06-04T04:53:50.471Z,1014.32
2018-06-04T04:54:50.481Z,1014.3
2018-06-04T04:55:50.530Z,1014.28
2018-06-04T04:56:50.477Z,1014.28
2018-06-04T04:57:50.518Z,1014.33
2018-06-04T04:58:50.483Z,1014.29
2018-06-04T04:59:50.626Z,1014.27
2018-06-04T05:00:50.454Z,1014.27
2018-06-04T05:01:50.817Z,1014.3
2018-06-04T05:02:50.491Z,1014.29
2018-06-04T05:03:50.458Z,1014.25
2018-06-04T05:04:50.475Z,1014.28
2018-06-04T05:05:50.465Z,1014.29
2018-06-04T05:06:50.622Z,1014.27
2018-06-04T05:07:50.462Z,1014.28
2018-06-04T05:08:50.483Z,1014.29
2018-06-04T05:09:50.585Z,1014.34
2018-06-04T05:10:51.259Z,1014.32
2018-06-04T05:11:50.477Z,1014.34
2018-06-04T05:12:50.501Z,1014.38
2018-06-04T05:13:50.467Z,1014.37
2018-06-04T05:14:50.455Z,1014.35
2018-06-04T05:15:50.493Z,1014.37
2018-06-04T05:16:50.440Z,1014.37
2018-06-04T05:17:50.689Z,1014.35
2018-06-04T05:18:50.610Z,1014.36
2018-06-04T05:19:50.458Z,1014.32
2018-06-04T05:20:50.441Z,1014.32
2018-06-04T05:21:50.454Z,1014.29
2018-06-04T05:22:50.455Z,1014.28
2018-06-04T05:23:50.724Z,1014.35
2018-06-04T05:24:50.459Z,1014.35
2018-06-04T05:25:50.457Z,1014.34
2018-06-04T05:26:50.496Z,1014.38
2018-06-04T05:27:50.450Z,1014.38
2018-06-04T05:28:50.465Z,1014.41
2018-06-04T05:29:50.451Z,1014.38
2018-06-04T05:30:50.439Z,1014.42
2018-06-04T05:31:50.652Z,1014.39
2018-06-04T05:32:50.455Z,1014.37
2018-06-04T05:33:50.739Z,1014.38
2018-06-04T05:34:50.798Z,1014.34
2018-06-04T05:35:50.621Z,1014.38
2018-06-04T05:36:50.467Z,1014.33
2018-06-04T05:37:50.542Z,1014.37
2018-06-04T05:38:50.548Z,1014.36
2018-06-04T05:39:50.503Z,1014.37
2018-06-04T05:40:50.498Z,1014.37
2018-06-04T05:41:50.514Z,1014.32
2018-06-04T05:42:50.553Z,1014.3
2018-06-04T05:43:50.529Z,1014.32
2018-06-04T05:44:50.457Z,1014.3
2018-06-04T05:45:50.435Z,1014.25
2018-06-04T05:46:50.525Z,1014.25
2018-06-04T05:47:50.442Z,1014.26
2018-06-04T05:48:50.725Z,1014.29
2018-06-04T05:49:50.456Z,1014.28
2018-06-04T05:50:50.455Z,1014.26
2018-06-04T05:51:50.463Z,1014.27
2018-06-04T05:52:50.472Z,1014.25
2018-06-04T05:53:50.464Z,1014.29
2018-06-04T05:54:50.582Z,1014.29
2018-06-04T05:55:50.429Z,1014.28
2018-06-04T05:56:50.445Z,1014.29
2018-06-04T05:57:50.492Z,1014.29
2018-06-04T05:58:50.466Z,1014.28
2018-06-04T05:59:50.459Z,1014.31
2018-06-04T06:00:50.665Z,1014.23
2018-06-04T06:01:50.610Z,1014.25
2018-06-04T06:02:50.464Z,1014.25
2018-06-04T06:03:50.565Z,1014.22
2018-06-04T06:04:50.493Z,1014.21
2018-06-04T06:05:50.467Z,1014.2
2018-06-04T06:06:50.474Z,1014.19
2018-06-04T06:07:50.468Z,1014.15
2018-06-04T06:08:50.477Z,1014.17
2018-06-04T06:09:50.526Z,1014.14
2018-06-04T06:10:50.470Z,1014.11
2018-06-04T06:11:50.504Z,1014.07
2018-06-04T06:12:50.436Z,1014.09
2018-06-04T06:13:50.426Z,1014.04
2018-06-04T06:14:50.485Z,1014.01
2018-06-04T06:15:50.664Z,1014
2018-06-04T06:16:50.426Z,1013.99
2018-06-04T06:17:50.554Z,1013.96
2018-06-04T06:18:50.434Z,1013.98
2018-06-04T06:19:50.551Z,1013.94
2018-06-04T06:20:50.446Z,1013.94
2018-06-04T06:21:50.455Z,1013.92
2018-06-04T06:22:50.461Z,1013.92
2018-06-04T06:23:50.428Z,1013.95
2018-06-04T06:24:50.456Z,1013.92
2018-06-04T06:25:50.425Z,1013.91
2018-06-04T06:26:50.434Z,1013.99
2018-06-04T06:27:50.437Z,1013.93
2018-06-04T06:28:50.458Z,1013.91
2018-06-04T06:29:50.467Z,1013.92
2018-06-04T06:30:50.689Z,1013.93
2018-06-04T06:31:50.467Z,1013.93
2018-06-04T06:32:50.429Z,1013.9
2018-06-04T06:33:50.707Z,1013.92
2018-06-04T06:34:50.455Z,1013.88
2018-06-04T06:35:50.437Z,1013.89
2018-06-04T06:36:50.448Z,1013.88
2018-06-04T06:37:50.454Z,1013.85
2018-06-04T06:38:50.479Z,1013.85
2018-06-04T06:39:50.413Z,1013.8
2018-06-04T06:40:50.431Z,1013.83
2018-06-04T06:41:50.441Z,1013.79
2018-06-04T06:42:50.403Z,1013.78
2018-06-04T06:43:50.415Z,1013.75
2018-06-04T06:44:50.511Z,1013.74
2018-06-04T06:45:51.049Z,1013.77
2018-06-04T06:46:50.467Z,1013.75
2018-06-04T06:47:50.422Z,1013.7
2018-06-04T06:48:50.428Z,1013.68
2018-06-04T06:49:50.459Z,1013.68
2018-06-04T06:50:50.427Z,1013.68
2018-06-04T06:51:50.468Z,1013.72
2018-06-04T06:52:50.454Z,1013.69
2018-06-04T06:53:50.475Z,1013.72
2018-06-04T06:54:50.425Z,1013.66
2018-06-04T06:55:50.425Z,1013.62
2018-06-04T06:56:50.471Z,1013.63
2018-06-04T06:57:50.411Z,1013.59
2018-06-04T06:58:50.476Z,1013.6
2018-06-04T06:59:50.464Z,1013.59
2018-06-04T07:00:50.432Z,1013.57
2018-06-04T07:01:50.530Z,1013.55
2018-06-04T07:02:50.440Z,1013.56
2018-06-04T07:03:50.426Z,1013.53
2018-06-04T07:04:50.436Z,1013.52
2018-06-04T07:05:50.503Z,1013.51
2018-06-04T07:06:50.474Z,1013.52
2018-06-04T07:07:50.407Z,1013.52
2018-06-04T07:08:50.427Z,1013.5
2018-06-04T07:09:50.515Z,1013.53
2018-06-04T07:10:50.589Z,1013.56
2018-06-04T07:11:50.449Z,1013.58
2018-06-04T07:12:50.402Z,1013.57
2018-06-04T07:13:50.420Z,1013.56
2018-06-04T07:14:50.472Z,1013.59
2018-06-04T07:15:50.489Z,1013.53
2018-06-04T07:16:50.485Z,1013.58
2018-06-04T07:17:50.426Z,1013.55
2018-06-04T07:18:50.450Z,1013.62
2018-06-04T07:19:50.407Z,1013.6
2018-06-04T07:20:50.439Z,1013.61
2018-06-04T07:21:50.466Z,1013.62
2018-06-04T07:22:50.425Z,1013.62
2018-06-04T07:23:50.410Z,1013.61
2018-06-04T07:24:50.413Z,1013.58
2018-06-04T07:25:50.523Z,1013.55
2018-06-04T07:26:50.518Z,1013.55
2018-06-04T07:27:50.545Z,1013.57
2018-06-04T07:28:50.455Z,1013.55
2018-06-04T07:29:50.457Z,1013.54
2018-06-04T07:30:50.450Z,1013.56
2018-06-04T07:31:50.420Z,1013.52
2018-06-04T07:32:50.481Z,1013.52
2018-06-04T07:33:50.415Z,1013.51
2018-06-04T07:34:50.538Z,1013.5
2018-06-04T07:35:50.395Z,1013.48
2018-06-04T07:36:50.472Z,1013.48
2018-06-04T07:37:50.413Z,1013.44
2018-06-04T07:38:50.405Z,1013.46
2018-06-04T07:39:50.412Z,1013.42
2018-06-04T07:40:50.423Z,1013.45
2018-06-04T07:41:50.445Z,1013.45
2018-06-04T07:42:50.456Z,1013.45
2018-06-04T07:43:56.241Z,1013.42
2018-06-04T07:44:50.406Z,1013.38
2018-06-04T07:45:50.398Z,1013.37
2018-06-04T07:46:50.390Z,1013.32
2018-06-04T07:47:50.396Z,1013.3
2018-06-04T07:48:50.385Z,1013.31
2018-06-04T07:49:50.461Z,1013.28
2018-06-04T07:50:50.404Z,1013.29
2018-06-04T07:51:50.380Z,1013.26
2018-06-04T07:52:50.403Z,1013.27
2018-06-04T07:53:50.385Z,1013.25
2018-06-04T07:54:50.385Z,1013.27
2018-06-04T07:55:50.394Z,1013.26
2018-06-04T07:56:50.406Z,1013.29
2018-06-04T07:57:50.433Z,1013.22
2018-06-04T07:58:50.479Z,1013.23
2018-06-04T07:59:50.390Z,1013.21
2018-06-04T08:00:50.552Z,1013.2
2018-06-04T08:01:50.431Z,1013.22
2018-06-04T08:02:50.441Z,1013.21
2018-06-04T08:03:50.381Z,1013.23
2018-06-04T08:04:50.386Z,1013.19
2018-06-04T08:05:50.400Z,1013.2
2018-06-04T08:06:50.407Z,1013.23
2018-06-04T08:07:50.398Z,1013.18
2018-06-04T08:08:50.412Z,1013.17
2018-06-04T08:09:50.426Z,1013.16
2018-06-04T08:10:50.418Z,1013.14
2018-06-04T08:11:50.472Z,1013.13
2018-06-04T08:12:50.386Z,1013.17
2018-06-04T08:13:50.438Z,1013.12
2018-06-04T08:14:50.548Z,1013.12
2018-06-04T08:15:50.567Z,1013.14
2018-06-04T08:16:50.385Z,1013.13
2018-06-04T08:17:50.431Z,1013.15
2018-06-04T08:18:50.402Z,1013.11
2018-06-04T08:19:50.400Z,1013.1
2018-06-04T08:20:50.395Z,1013.16
2018-06-04T08:21:50.380Z,1013.09
2018-06-04T08:22:50.397Z,1013.1
2018-06-04T08:23:50.474Z,1013.13
2018-06-04T08:24:50.396Z,1013.06
2018-06-04T08:25:50.381Z,1013.05
2018-06-04T08:26:50.447Z,1013.05
2018-06-04T08:27:50.382Z,1013.1
2018-06-04T08:28:50.381Z,1013.08
2018-06-04T08:29:50.374Z,1013.11
2018-06-04T08:30:50.426Z,1013.09
2018-06-04T08:31:50.428Z,1013.1
2018-06-04T08:32:50.383Z,1013.12
2018-06-04T08:33:50.371Z,1013.11
2018-06-04T08:34:50.395Z,1013.05
2018-06-04T08:35:50.383Z,1013.1
2018-06-04T08:36:50.420Z,1013.07
2018-06-04T08:37:50.387Z,1013.03
2018-06-04T08:38:50.375Z,1013.06
2018-06-04T08:39:50.386Z,1013.04
2018-06-04T08:40:50.447Z,1013.05
2018-06-04T08:41:50.563Z,1013.02
2018-06-04T08:42:50.407Z,1013.02
2018-06-04T08:43:50.371Z,1013.03
2018-06-04T08:44:50.387Z,1013.03
2018-06-04T08:45:50.426Z,1013.04
2018-06-04T08:46:50.678Z,1013.06
2018-06-04T08:47:50.510Z,1013.05
2018-06-04T08:48:50.393Z,1013.04
2018-06-04T08:49:50.388Z,1013.03
2018-06-04T08:50:50.401Z,1013.04
2018-06-04T08:51:50.364Z,1013.01
2018-06-04T08:52:50.392Z,1013.01
2018-06-04T08:53:50.378Z,1013.05
2018-06-04T08:54:50.412Z,1013.06
2018-06-04T08:55:50.367Z,1013.01
2018-06-04T08:56:50.393Z,1013.05
2018-06-04T08:57:50.378Z,1013
2018-06-04T08:58:50.398Z,1013.01
2018-06-04T08:59:50.370Z,1012.99
2018-06-04T09:00:50.383Z,1013.01
2018-06-04T09:01:50.379Z,1013.04
2018-06-04T09:02:50.435Z,1013.01
2018-06-04T09:03:50.494Z,1013
2018-06-04T09:04:50.396Z,1012.99
2018-06-04T09:05:50.440Z,1013.01
2018-06-04T09:06:50.377Z,1013
2018-06-04T09:07:50.566Z,1013.01
2018-06-04T09:08:50.378Z,1012.94
2018-06-04T09:09:50.491Z,1012.95
2018-06-04T09:10:50.385Z,1012.92
2018-06-04T09:11:50.373Z,1012.92
2018-06-04T09:12:50.384Z,1012.91
2018-06-04T09:13:50.452Z,1012.91
2018-06-04T09:14:50.383Z,1012.93
2018-06-04T09:15:50.468Z,1012.9
2018-06-04T09:16:50.553Z,1012.91
2018-06-04T09:17:50.376Z,1012.89
2018-06-04T09:18:50.375Z,1012.89
2018-06-04T09:19:50.368Z,1012.87
2018-06-04T09:20:50.355Z,1012.89
2018-06-04T09:21:50.384Z,1012.88
2018-06-04T09:22:50.370Z,1012.87
2018-06-04T09:23:50.398Z,1012.84
2018-06-04T09:24:50.390Z,1012.84
2018-06-04T09:25:50.381Z,1012.88
2018-06-04T09:26:50.391Z,1012.82
2018-06-04T09:27:50.366Z,1012.81
2018-06-04T09:28:50.417Z,1012.83
2018-06-04T09:29:50.371Z,1012.8
2018-06-04T09:30:50.372Z,1012.84
2018-06-04T09:31:50.372Z,1012.82
2018-06-04T09:32:50.453Z,1012.82
2018-06-04T09:33:50.449Z,1012.79
2018-06-04T09:34:50.399Z,1012.77
2018-06-04T09:35:50.347Z,1012.79
2018-06-04T09:36:50.364Z,1012.79
2018-06-04T09:37:50.376Z,1012.76
2018-06-04T09:38:50.410Z,1012.74
2018-06-04T09:39:50.370Z,1012.77
2018-06-04T09:40:50.511Z,1012.76
2018-06-04T09:41:50.381Z,1012.75
2018-06-04T09:42:50.441Z,1012.74
2018-06-04T09:43:50.360Z,1012.76
2018-06-04T09:44:50.377Z,1012.75
2018-06-04T09:45:50.403Z,1012.77
2018-06-04T09:46:50.469Z,1012.8
2018-06-04T09:47:50.361Z,1012.77
2018-06-04T09:48:50.369Z,1012.79
2018-06-04T09:49:50.499Z,1012.78
2018-06-04T09:50:50.381Z,1012.8
2018-06-04T09:51:50.361Z,1012.78
2018-06-04T09:52:50.587Z,1012.77
2018-06-04T09:53:50.629Z,1012.76
2018-06-04T09:54:50.371Z,1012.79
2018-06-04T09:55:50.390Z,1012.74
2018-06-04T09:56:50.350Z,1012.79
2018-06-04T09:57:50.545Z,1012.72
2018-06-04T09:58:50.404Z,1012.71
2018-06-04T09:59:50.417Z,1012.69
2018-06-04T10:00:50.492Z,1012.65
2018-06-04T10:01:50.368Z,1012.71
2018-06-04T10:02:50.376Z,1012.71
2018-06-04T10:03:50.558Z,1012.7
2018-06-04T10:04:50.352Z,1012.7
2018-06-04T10:05:50.379Z,1012.7
2018-06-04T10:06:50.377Z,1012.65
2018-06-04T10:07:50.366Z,1012.68
2018-06-04T10:08:50.366Z,1012.67
2018-06-04T10:09:50.384Z,1012.67
2018-06-04T10:10:50.372Z,1012.66
2018-06-04T10:11:50.350Z,1012.62
2018-06-04T10:12:50.363Z,1012.6
2018-06-04T10:13:50.349Z,1012.58
2018-06-04T10:14:50.354Z,1012.62
2018-06-04T10:15:50.361Z,1012.61
2018-06-04T10:16:50.371Z,1012.58
2018-06-04T10:17:50.374Z,1012.55
2018-06-04T10:18:50.359Z,1012.54
2018-06-04T10:19:50.408Z,1012.49
2018-06-04T10:20:50.375Z,1012.44
2018-06-04T10:21:50.397Z,1012.46
2018-06-04T10:22:50.378Z,1012.44
2018-06-04T10:23:50.400Z,1012.43
2018-06-04T10:24:50.381Z,1012.42
2018-06-04T10:25:50.378Z,1012.42
2018-06-04T10:26:50.339Z,1012.38
2018-06-04T10:27:50.470Z,1012.42
2018-06-04T10:28:50.378Z,1012.46
2018-06-04T10:29:50.621Z,1012.38
2018-06-04T10:30:50.520Z,1012.36
2018-06-04T10:31:50.353Z,1012.34
2018-06-04T10:32:50.392Z,1012.36
2018-06-04T10:33:50.412Z,1012.32
2018-06-04T10:34:50.375Z,1012.32
2018-06-04T10:35:50.413Z,1012.28
2018-06-04T10:36:50.371Z,1012.29
2018-06-04T10:37:50.431Z,1012.28
2018-06-04T10:38:50.359Z,1012.29
2018-06-04T10:39:50.358Z,1012.25
2018-06-04T10:40:50.502Z,1012.24
2018-06-04T10:41:50.359Z,1012.23
2018-06-04T10:42:50.399Z,1012.23
2018-06-04T10:43:50.363Z,1012.2
2018-06-04T10:44:50.358Z,1012.2
2018-06-04T10:45:50.353Z,1012.18
2018-06-04T10:46:50.760Z,1012.17
2018-06-04T10:47:50.384Z,1012.14
2018-06-04T10:48:50.361Z,1012.17
2018-06-04T10:49:50.361Z,1012.16
2018-06-04T10:50:50.393Z,1012.08
2018-06-04T10:51:50.381Z,1012.1
2018-06-04T10:52:50.456Z,1012.11
2018-06-04T10:53:50.437Z,1012.12
2018-06-04T10:54:50.349Z,1012.07
2018-06-04T10:55:50.500Z,1012.06
2018-06-04T10:56:50.356Z,1012.03
2018-06-04T10:57:50.336Z,1012.04
2018-06-04T10:58:50.354Z,1012.03
2018-06-04T10:59:50.330Z,1012.02
2018-06-04T11:00:50.343Z,1012.02
2018-06-04T11:01:50.352Z,1012
2018-06-04T11:02:50.383Z,1011.99
2018-06-04T11:03:50.355Z,1011.96
2018-06-04T11:04:50.407Z,1011.94
2018-06-04T11:05:50.375Z,1011.92
2018-06-04T11:06:50.337Z,1011.96
2018-06-04T11:07:50.402Z,1011.93
2018-06-04T11:08:50.339Z,1011.97
2018-06-04T11:09:50.428Z,1011.91
2018-06-04T11:10:50.387Z,1011.94
2018-06-04T11:11:50.329Z,1011.87
2018-06-04T11:12:50.573Z,1011.9
2018-06-04T11:13:50.371Z,1011.93
2018-06-04T11:14:50.326Z,1011.85
2018-06-04T11:15:51.034Z,1011.84
2018-06-04T11:16:50.369Z,1011.85
2018-06-04T11:17:50.334Z,1011.86
2018-06-04T11:18:50.404Z,1011.85
2018-06-04T11:19:50.339Z,1011.83
2018-06-04T11:20:50.365Z,1011.79
2018-06-04T11:21:50.323Z,1011.82
2018-06-04T11:22:50.370Z,1011.77
2018-06-04T11:23:50.338Z,1011.81
2018-06-04T11:24:50.358Z,1011.75
2018-06-04T11:25:50.371Z,1011.74
2018-06-04T11:26:50.344Z,1011.73
2018-06-04T11:27:50.365Z,1011.71
2018-06-04T11:28:50.345Z,1011.7
2018-06-04T11:29:50.350Z,1011.68
2018-06-04T11:30:50.363Z,1011.71
2018-06-04T11:31:50.355Z,1011.72
2018-06-04T11:32:50.349Z,1011.71
2018-06-04T11:33:50.339Z,1011.72
2018-06-04T11:34:50.360Z,1011.68
2018-06-04T11:35:50.349Z,1011.66
2018-06-04T11:36:50.485Z,1011.64
2018-06-04T11:37:50.483Z,1011.66
2018-06-04T11:38:50.345Z,1011.6
2018-06-04T11:39:50.475Z,1011.62
2018-06-04T11:40:50.312Z,1011.61
2018-06-04T11:41:50.357Z,1011.62
2018-06-04T11:42:50.323Z,1011.66
2018-06-04T11:43:50.513Z,1011.62
2018-06-04T11:44:50.374Z,1011.62
2018-06-04T11:45:50.389Z,1011.56
2018-06-04T11:46:50.341Z,1011.53
2018-06-04T11:47:50.348Z,1011.57
2018-06-04T11:48:50.529Z,1011.57
2018-06-04T11:49:50.446Z,1011.57
2018-06-04T11:50:50.383Z,1011.58
2018-06-04T11:51:50.391Z,1011.56
2018-06-04T11:52:50.330Z,1011.61
2018-06-04T11:53:50.365Z,1011.59
2018-06-04T11:54:50.369Z,1011.56
2018-06-04T11:55:50.424Z,1011.58
2018-06-04T11:56:50.380Z,1011.56
2018-06-04T11:57:50.369Z,1011.54
2018-06-04T11:58:50.365Z,1011.52
2018-06-04T11:59:50.384Z,1011.53
2018-06-04T12:00:50.422Z,1011.53
2018-06-04T12:01:50.339Z,1011.57
2018-06-04T12:02:50.323Z,1011.49
2018-06-04T12:03:50.431Z,1011.52
2018-06-04T12:04:50.316Z,1011.45
2018-06-04T12:05:50.415Z,1011.48
2018-06-04T12:06:50.367Z,1011.45
2018-06-04T12:07:50.492Z,1011.45
2018-06-04T12:08:50.344Z,1011.42